sensor_id;sensor_type;location;lat;lon;timestamp;pressure;altitude;pressure_sealevel;temperature;humidity
49393;BME280;35268;42.642;23.308;2023-06-22T00:01:01;94390.69;;;19.60;61.43
49393;BME280;35268;42.642;23.308;2023-06-22T00:03:27;94382.09;;;19.55;61.46
49393;BME280;35268;42.642;23.308;2023-06-22T00:05:52;94385.06;;;19.50;61.41
49393;BME280;35268;42.642;23.308;2023-06-22T00:08:18;94381.94;;;19.48;61.95
49393;BME280;35268;42.642;23.308;2023-06-22T00:10:45;94381.81;;;19.40;61.93
49393;BME280;35268;42.642;23.308;2023-06-22T00:13:11;94373.56;;;19.33;62.00
49393;BME280;35268;42.642;23.308;2023-06-22T00:15:39;94373.84;;;19.28;62.20
49393;BME280;35268;42.642;23.308;2023-06-22T00:18:08;94375.78;;;19.28;61.70
49393;BME280;35268;42.642;23.308;2023-06-22T00:20:34;94371.84;;;19.25;61.67
49393;BME280;35268;42.642;23.308;2023-06-22T00:23:03;94370.94;;;19.17;62.11
49393;BME280;35268;42.642;23.308;2023-06-22T00:25:37;94362.75;;;19.14;62.65
49393;BME280;35268;42.642;23.308;2023-06-22T00:28:05;94355.00;;;19.12;62.74
49393;BME280;35268;42.642;23.308;2023-06-22T00:30:31;94347.53;;;19.06;63.19
49393;BME280;35268;42.642;23.308;2023-06-22T00:32:57;94343.97;;;19.01;62.90
49393;BME280;35268;42.642;23.308;2023-06-22T00:35:23;94342.06;;;19.02;63.36
49393;BME280;35268;42.642;23.308;2023-06-22T00:37:54;94351.91;;;18.94;63.52
49393;BME280;35268;42.642;23.308;2023-06-22T00:40:26;94350.22;;;18.86;63.84
49393;BME280;35268;42.642;23.308;2023-06-22T00:42:51;94345.16;;;18.84;63.15
49393;BME280;35268;42.642;23.308;2023-06-22T00:45:17;94346.22;;;18.80;63.08
49393;BME280;35268;42.642;23.308;2023-06-22T00:47:42;94344.91;;;18.74;64.10
49393;BME280;35268;42.642;23.308;2023-06-22T00:50:13;94348.81;;;18.76;63.90
49393;BME280;35268;42.642;23.308;2023-06-22T00:52:43;94351.88;;;18.75;63.89
49393;BME280;35268;42.642;23.308;2023-06-22T00:55:11;94348.56;;;18.65;64.14
49393;BME280;35268;42.642;23.308;2023-06-22T00:57:37;94349.34;;;18.66;64.02
49393;BME280;35268;42.642;23.308;2023-06-22T01:00:03;94343.03;;;18.58;64.42
49393;BME280;35268;42.642;23.308;2023-06-22T01:02:33;94354.28;;;18.60;64.40
49393;BME280;35268;42.642;23.308;2023-06-22T01:04:59;94358.50;;;18.61;63.53
49393;BME280;35268;42.642;23.308;2023-06-22T01:07:35;94367.69;;;18.57;63.13
49393;BME280;35268;42.642;23.308;2023-06-22T01:10:12;94369.94;;;18.55;63.70
49393;BME280;35268;42.642;23.308;2023-06-22T01:12:52;94355.72;;;18.58;63.39
49393;BME280;35268;42.642;23.308;2023-06-22T01:15:41;94354.19;;;18.57;62.87
49393;BME280;35268;42.642;23.308;2023-06-22T01:18:12;94357.94;;;18.52;62.69
49393;BME280;35268;42.642;23.308;2023-06-22T01:20:38;94362.03;;;18.46;62.87
49393;BME280;35268;42.642;23.308;2023-06-22T01:31:04;94358.72;;;18.37;64.08
49393;BME280;35268;42.642;23.308;2023-06-22T01:33:37;94368.84;;;18.40;64.70
49393;BME280;35268;42.642;23.308;2023-06-22T01:36:04;94373.81;;;18.38;65.52
49393;BME280;35268;42.642;23.308;2023-06-22T01:38:32;94372.22;;;18.37;65.58
49393;BME280;35268;42.642;23.308;2023-06-22T01:40:59;94374.25;;;18.40;65.64
49393;BME280;35268;42.642;23.308;2023-06-22T01:43:26;94377.00;;;18.43;66.26
49393;BME280;35268;42.642;23.308;2023-06-22T01:46:14;94379.78;;;18.31;65.74
49393;BME280;35268;42.642;23.308;2023-06-22T01:48:40;94374.31;;;18.28;65.48
49393;BME280;35268;42.642;23.308;2023-06-22T01:51:06;94379.88;;;18.35;66.56
49393;BME280;35268;42.642;23.308;2023-06-22T01:53:32;94376.31;;;18.31;65.08
49393;BME280;35268;42.642;23.308;2023-06-22T01:55:57;94382.25;;;18.20;65.15
49393;BME280;35268;42.642;23.308;2023-06-22T01:58:26;94388.31;;;18.17;65.27
49393;BME280;35268;42.642;23.308;2023-06-22T02:01:12;94376.75;;;18.17;65.89
49393;BME280;35268;42.642;23.308;2023-06-22T02:03:46;94379.13;;;18.18;66.30
49393;BME280;35268;42.642;23.308;2023-06-22T02:06:21;94384.06;;;18.16;66.70
49393;BME280;35268;42.642;23.308;2023-06-22T02:08:54;94389.03;;;18.14;66.82
49393;BME280;35268;42.642;23.308;2023-06-22T02:11:21;94394.75;;;18.13;67.01
49393;BME280;35268;42.642;23.308;2023-06-22T02:13:48;94399.28;;;18.09;67.02
49393;BME280;35268;42.642;23.308;2023-06-22T02:16:15;94390.09;;;18.10;67.46
49393;BME280;35268;42.642;23.308;2023-06-22T02:18:51;94379.19;;;18.06;67.55
49393;BME280;35268;42.642;23.308;2023-06-22T02:21:20;94382.34;;;18.08;67.78
49393;BME280;35268;42.642;23.308;2023-06-22T02:23:45;94381.19;;;18.09;67.83
49393;BME280;35268;42.642;23.308;2023-06-22T02:26:11;94376.22;;;18.11;67.60
49393;BME280;35268;42.642;23.308;2023-06-22T02:28:37;94377.38;;;18.10;68.01
49393;BME280;35268;42.642;23.308;2023-06-22T02:31:02;94380.06;;;18.10;68.22
49393;BME280;35268;42.642;23.308;2023-06-22T02:33:28;94376.66;;;18.13;68.34
49393;BME280;35268;42.642;23.308;2023-06-22T02:35:54;94379.44;;;18.17;68.10
49393;BME280;35268;42.642;23.308;2023-06-22T02:38:19;94371.44;;;18.20;68.22
49393;BME280;35268;42.642;23.308;2023-06-22T02:40:45;94376.84;;;18.20;68.31
49393;BME280;35268;42.642;23.308;2023-06-22T02:43:11;94371.78;;;18.19;68.85
49393;BME280;35268;42.642;23.308;2023-06-22T02:45:36;94384.59;;;18.22;68.48
49393;BME280;35268;42.642;23.308;2023-06-22T02:48:01;94378.50;;;18.25;68.45
49393;BME280;35268;42.642;23.308;2023-06-22T02:50:27;94377.72;;;18.24;68.44
49393;BME280;35268;42.642;23.308;2023-06-22T02:52:53;94382.25;;;18.20;68.82
49393;BME280;35268;42.642;23.308;2023-06-22T02:55:18;94383.88;;;18.25;68.39
49393;BME280;35268;42.642;23.308;2023-06-22T02:57:44;94384.31;;;18.27;68.71
49393;BME280;35268;42.642;23.308;2023-06-22T03:00:11;94383.97;;;18.29;68.98
49393;BME280;35268;42.642;23.308;2023-06-22T03:02:46;94390.94;;;18.30;69.59
49393;BME280;35268;42.642;23.308;2023-06-22T03:05:13;94388.06;;;18.22;69.69
49393;BME280;35268;42.642;23.308;2023-06-22T03:07:42;94376.84;;;18.20;70.10
49393;BME280;35268;42.642;23.308;2023-06-22T03:10:13;94377.63;;;18.21;70.27
49393;BME280;35268;42.642;23.308;2023-06-22T03:12:40;94383.78;;;18.21;70.49
49393;BME280;35268;42.642;23.308;2023-06-22T03:15:07;94391.88;;;18.21;70.22
49393;BME280;35268;42.642;23.308;2023-06-22T03:17:34;94392.59;;;18.18;70.30
49393;BME280;35268;42.642;23.308;2023-06-22T03:19:59;94399.53;;;18.19;70.22
49393;BME280;35268;42.642;23.308;2023-06-22T03:22:25;94405.38;;;18.21;70.71
49393;BME280;35268;42.642;23.308;2023-06-22T03:24:51;94414.72;;;18.24;70.93
49393;BME280;35268;42.642;23.308;2023-06-22T03:27:16;94408.50;;;18.23;70.66
49393;BME280;35268;42.642;23.308;2023-06-22T03:29:42;94411.22;;;18.23;70.49
49393;BME280;35268;42.642;23.308;2023-06-22T03:32:07;94416.59;;;18.23;70.26
49393;BME280;35268;42.642;23.308;2023-06-22T03:34:32;94417.47;;;18.28;70.03
49393;BME280;35268;42.642;23.308;2023-06-22T03:36:59;94417.91;;;18.30;69.64
49393;BME280;35268;42.642;23.308;2023-06-22T03:39:25;94414.72;;;18.24;69.37
49393;BME280;35268;42.642;23.308;2023-06-22T03:41:50;94421.56;;;18.21;69.84
49393;BME280;35268;42.642;23.308;2023-06-22T03:44:16;94428.53;;;18.22;70.34
49393;BME280;35268;42.642;23.308;2023-06-22T03:46:41;94427.84;;;18.25;69.97
49393;BME280;35268;42.642;23.308;2023-06-22T03:49:07;94427.50;;;18.27;70.60
49393;BME280;35268;42.642;23.308;2023-06-22T03:51:32;94439.34;;;18.22;70.47
49393;BME280;35268;42.642;23.308;2023-06-22T03:53:58;94432.34;;;18.21;70.90
49393;BME280;35268;42.642;23.308;2023-06-22T03:56:23;94432.72;;;18.20;71.65
49393;BME280;35268;42.642;23.308;2023-06-22T03:58:49;94440.88;;;18.23;72.13
49393;BME280;35268;42.642;23.308;2023-06-22T04:01:14;94441.59;;;18.20;72.64
49393;BME280;35268;42.642;23.308;2023-06-22T04:03:42;94431.03;;;18.15;72.37
49393;BME280;35268;42.642;23.308;2023-06-22T04:06:08;94442.66;;;18.16;72.52
49393;BME280;35268;42.642;23.308;2023-06-22T04:08:33;94449.25;;;18.18;71.82
49393;BME280;35268;42.642;23.308;2023-06-22T04:10:59;94442.47;;;18.24;72.02
49393;BME280;35268;42.642;23.308;2023-06-22T04:13:24;94441.31;;;18.25;71.96
49393;BME280;35268;42.642;23.308;2023-06-22T04:15:50;94434.47;;;18.28;71.75
49393;BME280;35268;42.642;23.308;2023-06-22T04:18:15;94420.38;;;18.35;71.74
49393;BME280;35268;42.642;23.308;2023-06-22T04:20:41;94419.41;;;18.43;71.76
49393;BME280;35268;42.642;23.308;2023-06-22T04:23:06;94417.56;;;18.47;71.73
49393;BME280;35268;42.642;23.308;2023-06-22T04:25:32;94418.97;;;18.57;71.39
49393;BME280;35268;42.642;23.308;2023-06-22T04:27:57;94414.16;;;18.66;70.98
49393;BME280;35268;42.642;23.308;2023-06-22T04:30:23;94407.09;;;18.77;71.05
49393;BME280;35268;42.642;23.308;2023-06-22T04:32:48;94403.09;;;18.87;70.62
49393;BME280;35268;42.642;23.308;2023-06-22T04:35:24;94398.69;;;18.98;70.56
49393;BME280;35268;42.642;23.308;2023-06-22T04:37:49;94402.84;;;19.12;70.16
49393;BME280;35268;42.642;23.308;2023-06-22T04:40:15;94410.81;;;19.24;69.92
49393;BME280;35268;42.642;23.308;2023-06-22T04:42:41;94411.81;;;19.35;69.34
49393;BME280;35268;42.642;23.308;2023-06-22T04:45:17;94411.25;;;19.45;69.48
49393;BME280;35268;42.642;23.308;2023-06-22T04:47:42;94423.94;;;19.61;69.22
49393;BME280;35268;42.642;23.308;2023-06-22T04:50:11;94420.88;;;19.62;69.01
49393;BME280;35268;42.642;23.308;2023-06-22T04:52:37;94423.94;;;19.61;70.15
49393;BME280;35268;42.642;23.308;2023-06-22T04:55:03;94421.66;;;19.63;70.38
49393;BME280;35268;42.642;23.308;2023-06-22T04:57:29;94418.94;;;19.63;70.45
49393;BME280;35268;42.642;23.308;2023-06-22T04:59:58;94433.16;;;19.60;69.65
49393;BME280;35268;42.642;23.308;2023-06-22T05:02:39;94427.41;;;19.61;70.72
49393;BME280;35268;42.642;23.308;2023-06-22T05:05:05;94431.59;;;19.59;70.44
49393;BME280;35268;42.642;23.308;2023-06-22T05:07:35;94435.72;;;19.53;70.62
49393;BME280;35268;42.642;23.308;2023-06-22T05:10:04;94437.72;;;19.56;70.49
49393;BME280;35268;42.642;23.308;2023-06-22T05:12:30;94431.97;;;19.57;70.48
49393;BME280;35268;42.642;23.308;2023-06-22T05:14:56;94434.44;;;19.66;69.48
49393;BME280;35268;42.642;23.308;2023-06-22T05:17:22;94437.31;;;19.73;68.89
49393;BME280;35268;42.642;23.308;2023-06-22T05:19:47;94425.56;;;19.85;67.29
49393;BME280;35268;42.642;23.308;2023-06-22T05:22:17;94429.13;;;19.89;66.80
49393;BME280;35268;42.642;23.308;2023-06-22T05:24:42;94435.75;;;19.92;66.64
49393;BME280;35268;42.642;23.308;2023-06-22T05:27:08;94434.22;;;19.94;66.71
49393;BME280;35268;42.642;23.308;2023-06-22T05:29:34;94429.25;;;19.96;66.81
49393;BME280;35268;42.642;23.308;2023-06-22T05:32:00;94435.16;;;20.02;67.03
49393;BME280;35268;42.642;23.308;2023-06-22T05:34:26;94444.84;;;20.03;67.41
49393;BME280;35268;42.642;23.308;2023-06-22T05:36:51;94444.47;;;20.04;67.65
49393;BME280;35268;42.642;23.308;2023-06-22T05:39:17;94457.41;;;20.15;67.70
49393;BME280;35268;42.642;23.308;2023-06-22T05:41:44;94453.69;;;20.23;67.48
49393;BME280;35268;42.642;23.308;2023-06-22T05:44:09;94455.63;;;20.22;67.65
49393;BME280;35268;42.642;23.308;2023-06-22T05:46:34;94463.63;;;20.38;67.61
49393;BME280;35268;42.642;23.308;2023-06-22T05:49:00;94458.38;;;20.49;66.30
49393;BME280;35268;42.642;23.308;2023-06-22T05:51:25;94472.94;;;20.60;64.81
49393;BME280;35268;42.642;23.308;2023-06-22T05:53:51;94465.72;;;20.68;64.42
49393;BME280;35268;42.642;23.308;2023-06-22T05:56:17;94469.19;;;20.69;64.90
49393;BME280;35268;42.642;23.308;2023-06-22T05:58:42;94469.63;;;20.71;64.25
49393;BME280;35268;42.642;23.308;2023-06-22T06:01:08;94466.91;;;20.48;64.96
49393;BME280;35268;42.642;23.308;2023-06-22T06:03:33;94461.78;;;20.66;65.04
49393;BME280;35268;42.642;23.308;2023-06-22T06:05:59;94461.59;;;20.78;64.38
49393;BME280;35268;42.642;23.308;2023-06-22T06:08:25;94468.69;;;20.86;64.18
49393;BME280;35268;42.642;23.308;2023-06-22T06:10:50;94461.38;;;20.90;64.20
49393;BME280;35268;42.642;23.308;2023-06-22T06:13:18;94454.06;;;20.91;64.46
49393;BME280;35268;42.642;23.308;2023-06-22T06:15:43;94446.50;;;21.03;64.21
49393;BME280;35268;42.642;23.308;2023-06-22T06:18:09;94448.94;;;21.12;64.11
49393;BME280;35268;42.642;23.308;2023-06-22T06:20:34;94447.94;;;21.24;64.01
49393;BME280;35268;42.642;23.308;2023-06-22T06:23:00;94440.00;;;21.38;63.19
49393;BME280;35268;42.642;23.308;2023-06-22T06:25:26;94445.22;;;21.51;62.78
49393;BME280;35268;42.642;23.308;2023-06-22T06:27:51;94439.91;;;21.58;63.01
49393;BME280;35268;42.642;23.308;2023-06-22T06:30:19;94447.78;;;21.70;62.34
49393;BME280;35268;42.642;23.308;2023-06-22T06:32:46;94455.34;;;21.88;62.72
49393;BME280;35268;42.642;23.308;2023-06-22T06:35:13;94448.19;;;22.06;62.07
49393;BME280;35268;42.642;23.308;2023-06-22T06:37:40;94448.72;;;22.22;61.65
49393;BME280;35268;42.642;23.308;2023-06-22T06:40:07;94446.63;;;22.39;60.45
49393;BME280;35268;42.642;23.308;2023-06-22T06:42:39;94445.53;;;22.47;60.16
49393;BME280;35268;42.642;23.308;2023-06-22T06:45:08;94441.34;;;22.60;59.84
49393;BME280;35268;42.642;23.308;2023-06-22T06:47:34;94440.28;;;22.72;59.56
49393;BME280;35268;42.642;23.308;2023-06-22T06:49:59;94426.03;;;22.86;60.66
49393;BME280;35268;42.642;23.308;2023-06-22T06:52:25;94435.81;;;22.98;60.03
49393;BME280;35268;42.642;23.308;2023-06-22T06:54:50;94434.44;;;23.22;60.36
49393;BME280;35268;42.642;23.308;2023-06-22T06:57:18;94426.75;;;23.38;60.18
49393;BME280;35268;42.642;23.308;2023-06-22T06:59:43;94426.06;;;23.56;59.22
49393;BME280;35268;42.642;23.308;2023-06-22T07:02:08;94431.97;;;23.72;58.44
49393;BME280;35268;42.642;23.308;2023-06-22T07:04:34;94428.94;;;23.92;58.15
49393;BME280;35268;42.642;23.308;2023-06-22T07:07:01;94421.63;;;24.21;56.95
49393;BME280;35268;42.642;23.308;2023-06-22T07:09:27;94429.81;;;24.35;55.38
49393;BME280;35268;42.642;23.308;2023-06-22T07:11:52;94423.59;;;24.46;55.60
49393;BME280;35268;42.642;23.308;2023-06-22T07:14:18;94431.44;;;24.51;54.74
49393;BME280;35268;42.642;23.308;2023-06-22T07:16:43;94425.97;;;24.54;55.04
49393;BME280;35268;42.642;23.308;2023-06-22T07:19:11;94431.78;;;24.49;55.23
49393;BME280;35268;42.642;23.308;2023-06-22T07:21:37;94434.53;;;24.56;54.07
49393;BME280;35268;42.642;23.308;2023-06-22T07:24:02;94432.97;;;24.66;54.81
49393;BME280;35268;42.642;23.308;2023-06-22T07:26:28;94427.16;;;24.71;54.78
49393;BME280;35268;42.642;23.308;2023-06-22T07:28:53;94429.47;;;24.76;54.71
49393;BME280;35268;42.642;23.308;2023-06-22T07:31:19;94429.06;;;24.85;54.57
49393;BME280;35268;42.642;23.308;2023-06-22T07:33:44;94419.31;;;24.95;53.85
49393;BME280;35268;42.642;23.308;2023-06-22T07:36:10;94422.44;;;25.00;53.71
49393;BME280;35268;42.642;23.308;2023-06-22T07:38:35;94432.94;;;25.13;53.45
49393;BME280;35268;42.642;23.308;2023-06-22T07:41:02;94440.75;;;25.18;51.73
49393;BME280;35268;42.642;23.308;2023-06-22T07:43:30;94439.97;;;25.07;52.00
49393;BME280;35268;42.642;23.308;2023-06-22T07:45:58;94435.66;;;25.09;53.54
49393;BME280;35268;42.642;23.308;2023-06-22T07:48:23;94430.97;;;25.17;52.95
49393;BME280;35268;42.642;23.308;2023-06-22T07:50:49;94440.34;;;25.27;52.77
49393;BME280;35268;42.642;23.308;2023-06-22T07:53:15;94444.63;;;25.28;52.54
49393;BME280;35268;42.642;23.308;2023-06-22T07:55:40;94435.66;;;25.31;51.20
49393;BME280;35268;42.642;23.308;2023-06-22T07:58:06;94443.81;;;25.38;52.69
49393;BME280;35268;42.642;23.308;2023-06-22T08:00:31;94437.16;;;25.53;51.36
49393;BME280;35268;42.642;23.308;2023-06-22T08:02:58;94432.84;;;25.63;50.58
49393;BME280;35268;42.642;23.308;2023-06-22T08:05:24;94435.97;;;25.54;50.74
49393;BME280;35268;42.642;23.308;2023-06-22T08:07:49;94431.69;;;25.60;51.55
49393;BME280;35268;42.642;23.308;2023-06-22T08:10:15;94429.38;;;25.52;51.17
49393;BME280;35268;42.642;23.308;2023-06-22T08:12:41;94424.66;;;25.56;51.96
49393;BME280;35268;42.642;23.308;2023-06-22T08:15:06;94418.00;;;25.64;51.33
49393;BME280;35268;42.642;23.308;2023-06-22T08:17:33;94418.78;;;25.68;50.30
49393;BME280;35268;42.642;23.308;2023-06-22T08:19:58;94424.59;;;25.77;49.44
49393;BME280;35268;42.642;23.308;2023-06-22T08:22:24;94416.41;;;25.81;49.51
49393;BME280;35268;42.642;23.308;2023-06-22T08:24:49;94421.81;;;25.88;51.20
49393;BME280;35268;42.642;23.308;2023-06-22T08:27:15;94412.06;;;25.87;50.00
49393;BME280;35268;42.642;23.308;2023-06-22T08:29:43;94414.78;;;25.91;48.76
49393;BME280;35268;42.642;23.308;2023-06-22T08:32:11;94406.19;;;25.96;49.14
49393;BME280;35268;42.642;23.308;2023-06-22T08:34:37;94399.19;;;25.88;50.02
49393;BME280;35268;42.642;23.308;2023-06-22T08:37:02;94405.06;;;25.82;49.87
49393;BME280;35268;42.642;23.308;2023-06-22T08:39:32;94408.53;;;25.87;50.35
49393;BME280;35268;42.642;23.308;2023-06-22T08:41:57;94411.66;;;25.99;50.84
49393;BME280;35268;42.642;23.308;2023-06-22T08:44:23;94413.19;;;26.04;51.26
49393;BME280;35268;42.642;23.308;2023-06-22T08:46:48;94414.31;;;26.07;52.70
49393;BME280;35268;42.642;23.308;2023-06-22T08:49:14;94422.50;;;26.14;51.37
49393;BME280;35268;42.642;23.308;2023-06-22T08:51:40;94420.13;;;26.16;50.29
49393;BME280;35268;42.642;23.308;2023-06-22T08:54:05;94413.88;;;26.15;49.28
49393;BME280;35268;42.642;23.308;2023-06-22T08:56:30;94406.53;;;26.05;50.77
49393;BME280;35268;42.642;23.308;2023-06-22T08:58:56;94414.72;;;26.09;51.29
49393;BME280;35268;42.642;23.308;2023-06-22T09:01:22;94408.03;;;26.13;48.20
49393;BME280;35268;42.642;23.308;2023-06-22T09:03:47;94403.78;;;26.12;48.08
49393;BME280;35268;42.642;23.308;2023-06-22T09:06:22;94388.13;;;26.16;48.21
49393;BME280;35268;42.642;23.308;2023-06-22T09:08:47;94386.53;;;26.22;48.01
49393;BME280;35268;42.642;23.308;2023-06-22T09:11:13;94384.88;;;26.36;48.20
49393;BME280;35268;42.642;23.308;2023-06-22T09:13:38;94380.22;;;26.33;48.22
49393;BME280;35268;42.642;23.308;2023-06-22T09:16:04;94385.56;;;26.51;48.09
49393;BME280;35268;42.642;23.308;2023-06-22T09:18:30;94390.19;;;26.57;46.37
49393;BME280;35268;42.642;23.308;2023-06-22T09:20:55;94395.53;;;26.75;46.44
49393;BME280;35268;42.642;23.308;2023-06-22T09:23:21;94396.19;;;26.87;47.10
49393;BME280;35268;42.642;23.308;2023-06-22T09:25:46;94383.75;;;26.82;45.01
49393;BME280;35268;42.642;23.308;2023-06-22T09:28:13;94391.19;;;26.81;46.31
49393;BME280;35268;42.642;23.308;2023-06-22T09:30:39;94389.53;;;26.91;44.72
49393;BME280;35268;42.642;23.308;2023-06-22T09:33:04;94393.75;;;26.99;43.79
49393;BME280;35268;42.642;23.308;2023-06-22T09:35:30;94399.13;;;27.07;44.46
49393;BME280;35268;42.642;23.308;2023-06-22T09:37:55;94399.44;;;27.16;44.51
49393;BME280;35268;42.642;23.308;2023-06-22T09:40:20;94409.16;;;27.24;42.87
49393;BME280;35268;42.642;23.308;2023-06-22T09:42:46;94411.50;;;27.26;43.64
49393;BME280;35268;42.642;23.308;2023-06-22T09:45:12;94403.59;;;27.31;42.35
49393;BME280;35268;42.642;23.308;2023-06-22T09:47:37;94397.38;;;27.27;40.99
49393;BME280;35268;42.642;23.308;2023-06-22T09:50:03;94402.06;;;27.30;41.33
49393;BME280;35268;42.642;23.308;2023-06-22T09:52:28;94398.97;;;27.28;41.56
49393;BME280;35268;42.642;23.308;2023-06-22T09:54:54;94395.41;;;27.31;41.15
49393;BME280;35268;42.642;23.308;2023-06-22T09:57:19;94389.13;;;27.34;42.25
49393;BME280;35268;42.642;23.308;2023-06-22T09:59:45;94387.38;;;27.48;40.82
49393;BME280;35268;42.642;23.308;2023-06-22T10:02:10;94388.09;;;27.55;41.70
49393;BME280;35268;42.642;23.308;2023-06-22T10:04:36;94389.88;;;27.69;41.67
49393;BME280;35268;42.642;23.308;2023-06-22T10:07:02;94392.06;;;27.81;41.79
49393;BME280;35268;42.642;23.308;2023-06-22T10:09:28;94394.00;;;27.85;41.80
49393;BME280;35268;42.642;23.308;2023-06-22T10:11:53;94387.72;;;27.84;40.61
49393;BME280;35268;42.642;23.308;2023-06-22T10:14:19;94380.63;;;27.90;39.62
49393;BME280;35268;42.642;23.308;2023-06-22T10:16:44;94388.41;;;27.95;40.46
49393;BME280;35268;42.642;23.308;2023-06-22T10:19:10;94381.44;;;27.91;40.46
49393;BME280;35268;42.642;23.308;2023-06-22T10:21:35;94372.41;;;27.90;39.06
49393;BME280;35268;42.642;23.308;2023-06-22T10:24:01;94372.34;;;27.97;39.32
49393;BME280;35268;42.642;23.308;2023-06-22T10:26:36;94373.81;;;28.02;38.09
49393;BME280;35268;42.642;23.308;2023-06-22T10:29:02;94376.94;;;28.04;38.39
49393;BME280;35268;42.642;23.308;2023-06-22T10:31:28;94372.22;;;28.05;38.37
49393;BME280;35268;42.642;23.308;2023-06-22T10:33:55;94369.19;;;27.99;37.41
49393;BME280;35268;42.642;23.308;2023-06-22T10:36:23;94365.25;;;28.00;38.67
49393;BME280;35268;42.642;23.308;2023-06-22T10:38:49;94369.84;;;28.07;38.89
49393;BME280;35268;42.642;23.308;2023-06-22T10:41:15;94368.50;;;28.18;38.33
49393;BME280;35268;42.642;23.308;2023-06-22T10:43:41;94363.38;;;28.20;39.23
49393;BME280;35268;42.642;23.308;2023-06-22T10:46:07;94354.03;;;28.18;38.33
49393;BME280;35268;42.642;23.308;2023-06-22T10:48:32;94360.97;;;28.26;38.33
49393;BME280;35268;42.642;23.308;2023-06-22T10:50:58;94348.38;;;28.29;37.96
49393;BME280;35268;42.642;23.308;2023-06-22T10:53:23;94359.13;;;28.43;39.99
49393;BME280;35268;42.642;23.308;2023-06-22T10:55:48;94348.66;;;28.61;39.36
49393;BME280;35268;42.642;23.308;2023-06-22T10:58:14;94348.38;;;28.79;38.75
49393;BME280;35268;42.642;23.308;2023-06-22T11:00:40;94354.25;;;29.01;38.27
49393;BME280;35268;42.642;23.308;2023-06-22T11:03:05;94345.91;;;29.09;35.95
49393;BME280;35268;42.642;23.308;2023-06-22T11:05:31;94351.69;;;29.14;36.24
49393;BME280;35268;42.642;23.308;2023-06-22T11:07:56;94348.25;;;29.30;37.72
49393;BME280;35268;42.642;23.308;2023-06-22T11:10:22;94345.56;;;29.47;37.83
49393;BME280;35268;42.642;23.308;2023-06-22T11:12:47;94342.41;;;29.68;37.36
49393;BME280;35268;42.642;23.308;2023-06-22T11:15:13;94339.38;;;29.83;36.92
49393;BME280;35268;42.642;23.308;2023-06-22T11:17:38;94336.59;;;30.03;36.25
49393;BME280;35268;42.642;23.308;2023-06-22T11:20:05;94339.28;;;30.23;36.89
49393;BME280;35268;42.642;23.308;2023-06-22T11:22:39;94343.59;;;30.40;36.15
49393;BME280;35268;42.642;23.308;2023-06-22T11:25:05;94325.09;;;30.40;34.15
49393;BME280;35268;42.642;23.308;2023-06-22T11:27:31;94336.91;;;30.57;35.37
49393;BME280;35268;42.642;23.308;2023-06-22T11:29:56;94331.88;;;30.85;34.92
49393;BME280;35268;42.642;23.308;2023-06-22T11:32:22;94327.72;;;31.10;32.91
49393;BME280;35268;42.642;23.308;2023-06-22T11:34:48;94326.63;;;31.20;32.18
49393;BME280;35268;42.642;23.308;2023-06-22T11:37:13;94327.56;;;31.30;32.46
49393;BME280;35268;42.642;23.308;2023-06-22T11:39:38;94325.22;;;31.28;32.02
49393;BME280;35268;42.642;23.308;2023-06-22T11:42:04;94329.97;;;31.28;31.06
49393;BME280;35268;42.642;23.308;2023-06-22T11:44:30;94324.69;;;31.21;31.71
49393;BME280;35268;42.642;23.308;2023-06-22T11:46:55;94325.19;;;31.15;32.26
49393;BME280;35268;42.642;23.308;2023-06-22T11:49:20;94320.91;;;31.14;33.12
49393;BME280;35268;42.642;23.308;2023-06-22T11:51:46;94325.06;;;31.06;32.67
49393;BME280;35268;42.642;23.308;2023-06-22T11:54:11;94317.06;;;30.95;31.87
49393;BME280;35268;42.642;23.308;2023-06-22T11:56:37;94308.41;;;30.80;32.03
49393;BME280;35268;42.642;23.308;2023-06-22T11:59:02;94305.06;;;30.73;32.08
49393;BME280;35268;42.642;23.308;2023-06-22T12:01:28;94312.28;;;30.67;32.34
49393;BME280;35268;42.642;23.308;2023-06-22T12:03:53;94317.31;;;30.55;32.88
49393;BME280;35268;42.642;23.308;2023-06-22T12:06:19;94320.16;;;30.35;35.71
49393;BME280;35268;42.642;23.308;2023-06-22T12:08:44;94322.16;;;30.15;36.45
49393;BME280;35268;42.642;23.308;2023-06-22T12:11:10;94317.41;;;29.83;37.35
49393;BME280;35268;42.642;23.308;2023-06-22T12:13:35;94321.78;;;29.40;37.68
49393;BME280;35268;42.642;23.308;2023-06-22T12:16:01;94330.47;;;28.95;40.20
49393;BME280;35268;42.642;23.308;2023-06-22T12:18:26;94325.75;;;28.72;39.29
49393;BME280;35268;42.642;23.308;2023-06-22T12:20:51;94331.88;;;28.32;41.83
49393;BME280;35268;42.642;23.308;2023-06-22T12:23:17;94327.63;;;28.04;42.51
49393;BME280;35268;42.642;23.308;2023-06-22T12:25:44;94325.38;;;27.68;43.21
49393;BME280;35268;42.642;23.308;2023-06-22T12:28:10;94331.28;;;27.63;45.79
49393;BME280;35268;42.642;23.308;2023-06-22T12:30:35;94325.25;;;27.45;47.12
49393;BME280;35268;42.642;23.308;2023-06-22T12:33:00;94328.59;;;27.29;48.18
49393;BME280;35268;42.642;23.308;2023-06-22T12:35:26;94337.81;;;27.04;48.11
49393;BME280;35268;42.642;23.308;2023-06-22T12:37:51;94347.97;;;26.66;49.22
49393;BME280;35268;42.642;23.308;2023-06-22T12:40:17;94363.09;;;26.21;51.39
49393;BME280;35268;42.642;23.308;2023-06-22T12:42:44;94355.53;;;25.91;53.25
49393;BME280;35268;42.642;23.308;2023-06-22T12:45:10;94368.22;;;25.38;54.65
49393;BME280;35268;42.642;23.308;2023-06-22T12:47:35;94348.81;;;25.04;55.59
49393;BME280;35268;42.642;23.308;2023-06-22T12:50:01;94341.88;;;24.49;56.11
49393;BME280;35268;42.642;23.308;2023-06-22T12:52:26;94350.03;;;24.42;56.73
49393;BME280;35268;42.642;23.308;2023-06-22T12:54:52;94369.50;;;24.44;57.94